createdAt,value
2022-09-28T00:02:00.989Z,6.00
2022-09-28T00:04:28.653Z,4.83
2022-09-28T00:06:55.094Z,6.73
2022-09-28T00:09:21.691Z,6.10
2022-09-28T00:11:48.222Z,5.90
2022-09-28T00:14:15.274Z,6.03
2022-09-28T00:16:44.983Z,8.10
2022-09-28T00:19:13.008Z,6.93
2022-09-28T00:21:40.683Z,8.33
2022-09-28T00:24:17.244Z,8.13
2022-09-28T00:26:51.214Z,6.43
2022-09-28T00:29:29.399Z,8.57
2022-09-28T00:32:02.517Z,7.80
2022-09-28T00:34:34.655Z,7.20
2022-09-28T00:37:02.419Z,7.80
2022-09-28T00:39:31.598Z,8.83
2022-09-28T00:41:58.712Z,7.23
2022-09-28T00:44:25.423Z,8.03
2022-09-28T00:47:10.170Z,7.07
2022-09-28T00:49:54.829Z,8.00
2022-09-28T00:52:26.922Z,7.63
2022-09-28T00:54:53.654Z,11.40
2022-09-28T00:57:21.308Z,7.17
2022-09-28T00:59:49.450Z,8.90
2022-09-28T01:02:16.061Z,7.13
2022-09-28T01:04:42.635Z,8.33
2022-09-28T01:07:09.894Z,7.07
2022-09-28T01:09:40.647Z,7.57
2022-09-28T01:12:07.924Z,8.20
2022-09-28T01:14:34.582Z,8.00
2022-09-28T01:17:13.517Z,8.00
2022-09-28T01:20:15.512Z,8.10
2022-09-28T01:22:41.908Z,8.03
2022-09-28T01:25:28.193Z,7.60
2022-09-28T01:27:58.682Z,8.57
2022-09-28T01:30:25.330Z,9.90
2022-09-28T01:33:01.903Z,7.60
2022-09-28T01:35:33.482Z,8.87
2022-09-28T01:38:03.658Z,9.47
2022-09-28T01:40:31.370Z,10.03
2022-09-28T01:43:03.296Z,8.63
2022-09-28T01:45:34.061Z,12.10
2022-09-28T01:48:03.761Z,9.37
2022-09-28T01:50:35.506Z,11.30
2022-09-28T01:53:30.048Z,12.57
2022-09-28T01:56:00.557Z,9.83
2022-09-28T01:58:32.618Z,9.03
2022-09-28T02:01:09.684Z,10.93
2022-09-28T02:03:42.314Z,8.20
2022-09-28T02:06:14.628Z,9.00
2022-09-28T02:08:50.384Z,9.17
2022-09-28T02:11:20.571Z,9.40
2022-09-28T02:13:54.188Z,9.10
2022-09-28T02:16:35.976Z,9.43
2022-09-28T02:19:03.795Z,8.80
2022-09-28T02:21:58.551Z,9.60
2022-09-28T02:24:35.750Z,10.37
2022-09-28T02:27:16.301Z,12.43
2022-09-28T02:29:42.990Z,9.10
2022-09-28T02:32:10.396Z,9.80
2022-09-28T02:34:36.942Z,13.43
2022-09-28T02:37:03.810Z,10.60
2022-09-28T02:39:30.363Z,13.00
2022-09-28T02:42:28.003Z,11.47
2022-09-28T02:45:20.882Z,14.60
2022-09-28T02:48:01.398Z,11.27
2022-09-28T02:50:36.887Z,12.60
2022-09-28T02:53:24.785Z,15.27
2022-09-28T02:56:00.488Z,14.00
2022-09-28T02:58:55.007Z,11.17
2022-09-28T03:01:29.574Z,12.37
2022-09-28T03:04:40.858Z,12.90
2022-09-28T03:07:16.657Z,14.60
2022-09-28T03:09:52.489Z,11.00
2022-09-28T03:12:20.856Z,11.83
2022-09-28T03:14:47.346Z,12.07
2022-09-28T03:17:16.643Z,11.23
2022-09-28T03:19:43.157Z,12.80
2022-09-28T03:22:09.591Z,13.23
2022-09-28T03:24:36.292Z,10.87
2022-09-28T03:27:02.808Z,10.50
2022-09-28T03:29:32.932Z,11.40
2022-09-28T03:31:59.598Z,11.83
2022-09-28T03:34:26.177Z,15.70
2022-09-28T03:36:52.654Z,12.10
2022-09-28T03:39:19.153Z,12.43
2022-09-28T03:41:45.706Z,12.43
2022-09-28T03:44:12.179Z,14.83
2022-09-28T03:46:38.722Z,15.87
2022-09-28T03:49:05.335Z,15.50
2022-09-28T03:51:32.331Z,17.13
2022-09-28T03:53:58.936Z,17.03
2022-09-28T03:56:26.130Z,18.33
2022-09-28T03:58:52.628Z,16.10
2022-09-28T04:01:19.127Z,14.87
2022-09-28T04:03:46.398Z,19.97
2022-09-28T04:06:13.807Z,17.43
2022-09-28T04:08:40.322Z,21.13
2022-09-28T04:11:06.809Z,24.73
2022-09-28T04:13:33.293Z,20.43
2022-09-28T04:16:01.174Z,18.53
2022-09-28T04:18:28.551Z,20.50
2022-09-28T04:21:15.489Z,17.03
2022-09-28T04:23:42.412Z,18.40
2022-09-28T04:26:16.614Z,20.40
2022-09-28T04:29:06.360Z,21.07
2022-09-28T04:31:47.826Z,23.10
2022-09-28T04:34:17.328Z,20.37
2022-09-28T04:36:45.169Z,20.63
2022-09-28T04:39:12.707Z,22.63
2022-09-28T04:41:39.870Z,23.37
2022-09-28T04:44:06.596Z,24.60
2022-09-28T04:46:33.175Z,24.70
2022-09-28T04:48:59.697Z,21.90
2022-09-28T04:51:26.158Z,25.50
2022-09-28T04:53:52.698Z,22.43
2022-09-28T04:56:20.261Z,23.70
2022-09-28T04:58:51.804Z,25.60
2022-09-28T05:01:23.325Z,25.03
2022-09-28T05:03:51.146Z,24.53
2022-09-28T05:06:17.937Z,25.77
2022-09-28T05:08:46.794Z,24.17
2022-09-28T05:11:13.837Z,26.57
2022-09-28T05:13:43.459Z,24.30
2022-09-28T05:16:10.352Z,30.50
2022-09-28T05:18:36.955Z,27.00
2022-09-28T05:21:04.539Z,25.50
2022-09-28T05:23:34.315Z,27.60
2022-09-28T05:26:02.228Z,28.30
2022-09-28T05:28:29.957Z,29.57
2022-09-28T05:31:02.710Z,25.47
2022-09-28T05:33:29.350Z,22.87
2022-09-28T05:36:00.299Z,25.83
2022-09-28T05:38:27.795Z,25.57
2022-09-28T05:40:54.504Z,31.23
2022-09-28T05:43:21.028Z,23.80
2022-09-28T05:45:52.912Z,27.43
2022-09-28T05:48:21.685Z,24.77
2022-09-28T05:50:52.450Z,27.83
2022-09-28T05:53:20.099Z,27.40
2022-09-28T05:55:46.609Z,29.60
2022-09-28T05:58:13.374Z,26.40
2022-09-28T06:00:40.262Z,23.13
2022-09-28T06:03:12.428Z,31.77
2022-09-28T06:05:39.675Z,25.13
2022-09-28T06:08:08.248Z,23.33
2022-09-28T06:10:35.030Z,25.27
2022-09-28T06:13:02.235Z,26.03
2022-09-28T06:15:31.680Z,26.90
2022-09-28T06:18:03.906Z,27.93
2022-09-28T06:20:33.335Z,25.83
2022-09-28T06:22:59.821Z,28.43
2022-09-28T06:25:27.653Z,28.40
2022-09-28T06:27:58.830Z,25.93
2022-09-28T06:30:27.295Z,25.33
2022-09-28T06:32:58.965Z,22.50
2022-09-28T06:35:27.047Z,25.10
2022-09-28T06:37:53.997Z,26.73
2022-09-28T06:40:21.675Z,24.00
2022-09-28T06:43:10.295Z,22.33
2022-09-28T06:45:37.652Z,22.00
2022-09-28T06:48:04.753Z,24.43
2022-09-28T06:50:37.491Z,23.80
2022-09-28T06:53:06.700Z,22.43
2022-09-28T06:55:33.272Z,24.47
2022-09-28T06:58:04.354Z,26.40
2022-09-28T07:00:33.942Z,25.17
2022-09-28T07:03:02.578Z,27.47
2022-09-28T07:05:29.949Z,24.13
2022-09-28T07:07:56.963Z,24.27
2022-09-28T07:10:27.731Z,24.63
2022-09-28T07:12:55.342Z,29.00
2022-09-28T07:15:22.618Z,24.13
2022-09-28T07:18:00.371Z,24.50
2022-09-28T07:20:30.225Z,22.20
2022-09-28T07:23:08.086Z,23.83
2022-09-28T07:25:45.504Z,20.10
2022-09-28T07:28:12.310Z,18.20
2022-09-28T07:30:38.858Z,20.23
2022-09-28T07:33:07.303Z,15.13
2022-09-28T07:35:34.384Z,12.40
2022-09-28T07:38:03.678Z,13.10
2022-09-28T07:40:49.947Z,13.23
2022-09-28T07:43:20.615Z,12.20
2022-09-28T07:45:55.703Z,13.17
2022-09-28T07:48:22.595Z,13.57
2022-09-28T07:50:52.465Z,11.93
2022-09-28T07:53:20.186Z,14.83
2022-09-28T07:56:05.623Z,14.00
2022-09-28T07:58:32.934Z,15.80
2022-09-28T08:01:06.810Z,17.07
2022-09-28T08:03:35.054Z,16.60
2022-09-28T08:06:04.078Z,20.10
2022-09-28T08:08:31.553Z,17.90
2022-09-28T08:10:58.355Z,18.00
2022-09-28T08:13:27.160Z,18.10
2022-09-28T08:15:54.479Z,17.80
2022-09-28T08:18:21.397Z,17.53
2022-09-28T08:21:06.570Z,20.00
2022-09-28T08:23:33.038Z,20.50
2022-09-28T08:25:59.531Z,21.77
2022-09-28T08:28:26.219Z,21.73
2022-09-28T08:30:54.215Z,21.37
2022-09-28T08:33:21.688Z,20.70
2022-09-28T08:35:54.477Z,22.30
2022-09-28T08:38:21.330Z,22.97
2022-09-28T08:40:57.502Z,25.13
2022-09-28T08:43:34.287Z,31.47
2022-09-28T08:46:01.207Z,22.73
2022-09-28T08:48:56.338Z,25.73
2022-09-28T08:51:44.384Z,24.03
2022-09-28T08:54:36.045Z,21.17
2022-09-28T08:57:19.600Z,24.60
2022-09-28T08:59:53.285Z,24.07
2022-09-28T09:02:27.643Z,26.60
2022-09-28T09:04:54.731Z,24.00
2022-09-28T09:07:42.571Z,24.10
2022-09-28T09:10:17.417Z,25.90
2022-09-28T09:12:58.661Z,23.57
2022-09-28T09:15:47.689Z,25.83
2022-09-28T09:18:20.071Z,26.83
2022-09-28T09:20:59.686Z,30.67
2022-09-28T09:23:38.330Z,23.60
2022-09-28T09:26:22.140Z,25.80
2022-09-28T09:29:17.599Z,24.80
2022-09-28T09:32:04.253Z,23.60
2022-09-28T09:34:38.019Z,27.00
2022-09-28T09:37:10.573Z,22.27
2022-09-28T09:40:01.300Z,22.20
2022-09-28T09:42:49.940Z,22.00
2022-09-28T09:45:47.946Z,23.80
2022-09-28T09:48:20.838Z,26.23
2022-09-28T09:50:57.356Z,26.90
2022-09-28T09:53:28.902Z,27.40
2022-09-28T09:56:06.048Z,24.50
2022-09-28T09:58:41.097Z,25.30
2022-09-28T10:01:10.920Z,24.63
2022-09-28T10:03:41.678Z,30.67
2022-09-28T10:06:27.396Z,25.63
2022-09-28T10:09:19.191Z,23.17
2022-09-28T10:11:50.169Z,28.47
2022-09-28T10:14:19.968Z,21.13
2022-09-28T10:16:48.453Z,27.73
2022-09-28T10:19:16.764Z,27.10
2022-09-28T10:21:43.602Z,29.17
2022-09-28T10:24:16.902Z,25.67
2022-09-28T10:26:47.249Z,28.20
2022-09-28T10:29:17.717Z,26.40
2022-09-28T10:31:47.216Z,24.03
2022-09-28T10:34:15.522Z,23.77
2022-09-28T10:36:50.157Z,24.83
2022-09-28T10:39:50.555Z,24.80
2022-09-28T10:42:36.175Z,24.07
2022-09-28T10:45:05.250Z,23.17
2022-09-28T10:47:32.746Z,21.77
2022-09-28T10:49:59.883Z,20.60
2022-09-28T10:52:33.901Z,17.90
2022-09-28T10:55:00.843Z,19.90
2022-09-28T10:57:35.989Z,18.30
2022-09-28T11:00:06.486Z,22.90
2022-09-28T11:02:37.700Z,20.10
2022-09-28T11:05:06.233Z,20.37
2022-09-28T11:07:34.098Z,17.77
2022-09-28T11:10:01.345Z,18.03
2022-09-28T11:12:35.250Z,18.23
2022-09-28T11:15:06.482Z,18.63
2022-09-28T11:17:33.828Z,17.87
2022-09-28T11:20:02.621Z,16.80
2022-09-28T11:22:36.351Z,19.07
2022-09-28T11:25:32.062Z,14.73
2022-09-28T11:27:59.999Z,14.83
2022-09-28T11:30:40.625Z,14.63
2022-09-28T11:33:12.037Z,15.90
2022-09-28T11:36:12.692Z,15.63
2022-09-28T11:39:11.617Z,14.63
2022-09-28T11:42:16.194Z,14.77
2022-09-28T11:44:46.427Z,15.30
2022-09-28T11:47:29.636Z,12.97
2022-09-28T11:50:25.366Z,11.93
2022-09-28T11:52:58.202Z,11.20
2022-09-28T11:55:31.422Z,10.80
2022-09-28T11:58:11.806Z,10.87
2022-09-28T12:00:44.187Z,8.87
2022-09-28T12:03:41.230Z,7.77
2022-09-28T12:06:15.560Z,8.30
2022-09-28T12:08:48.730Z,7.90
2022-09-28T12:11:21.407Z,7.23
2022-09-28T12:13:49.927Z,7.23
2022-09-28T12:16:53.683Z,7.90
2022-09-28T12:19:27.482Z,7.80
2022-09-28T12:21:56.870Z,8.13
2022-09-28T12:24:29.449Z,7.00
2022-09-28T12:27:11.374Z,6.90
2022-09-28T12:29:49.732Z,8.13
2022-09-28T12:32:28.453Z,6.03
2022-09-28T12:34:55.898Z,6.10
2022-09-28T12:37:41.281Z,7.40
2022-09-28T12:40:07.931Z,6.97
2022-09-28T12:43:06.999Z,5.67
2022-09-28T12:45:59.772Z,5.30
2022-09-28T12:48:53.096Z,5.10
2022-09-28T12:51:36.902Z,4.97
2022-09-28T12:54:18.750Z,4.63
2022-09-28T12:56:52.217Z,5.30
2022-09-28T12:59:29.186Z,4.80
2022-09-28T13:02:31.144Z,4.30
2022-09-28T13:05:33.922Z,4.40
2022-09-28T13:08:09.666Z,4.70
2022-09-28T13:10:52.215Z,3.93
2022-09-28T13:13:21.790Z,4.77
2022-09-28T13:16:09.533Z,6.60
2022-09-28T13:18:57.298Z,5.90
2022-09-28T13:21:41.689Z,4.73
2022-09-28T13:24:31.184Z,4.30
2022-09-28T13:27:04.545Z,4.33
2022-09-28T13:29:32.032Z,4.70
2022-09-28T13:31:59.354Z,4.80
2022-09-28T13:34:28.941Z,4.63
2022-09-28T13:37:11.203Z,4.80
2022-09-28T13:39:56.613Z,5.33
2022-09-28T13:42:35.299Z,4.40
2022-09-28T13:45:19.980Z,14.57
2022-09-28T13:47:52.493Z,6.43
2022-09-28T13:50:43.188Z,5.00
2022-09-28T13:53:22.899Z,6.17
2022-09-28T13:56:23.530Z,8.70
2022-09-28T13:59:03.610Z,6.57
2022-09-28T14:01:35.711Z,5.60
2022-09-28T14:04:11.662Z,9.50
2022-09-28T14:06:47.479Z,6.47
2022-09-28T14:09:16.037Z,5.43
2022-09-28T14:12:00.275Z,6.07
2022-09-28T14:15:02.607Z,6.20
2022-09-28T14:17:31.747Z,5.57
2022-09-28T14:20:11.083Z,5.63
2022-09-28T14:23:00.735Z,6.90
2022-09-28T14:25:31.307Z,6.60
2022-09-28T14:28:19.089Z,6.10
2022-09-28T14:30:54.030Z,9.00
2022-09-28T14:33:20.621Z,7.00
2022-09-28T14:36:08.080Z,9.10
2022-09-28T14:38:54.262Z,6.00
2022-09-28T14:41:34.579Z,6.43
2022-09-28T14:44:02.787Z,7.10
2022-09-28T14:46:30.937Z,8.40
2022-09-28T14:49:23.192Z,7.07
2022-09-28T14:51:58.402Z,7.20
2022-09-28T14:54:26.920Z,6.73
2022-09-28T14:56:53.617Z,7.00
2022-09-28T14:59:20.134Z,6.47
2022-09-28T15:02:03.711Z,7.97
2022-09-28T15:04:30.875Z,7.53
2022-09-28T15:06:58.081Z,7.20
2022-09-28T15:09:35.108Z,7.77
2022-09-28T15:12:13.080Z,6.57
2022-09-28T15:15:02.388Z,7.20
2022-09-28T15:17:39.559Z,8.00
2022-09-28T15:20:36.998Z,7.63
2022-09-28T15:23:03.950Z,7.00
2022-09-28T15:25:33.910Z,6.97
2022-09-28T15:28:03.509Z,7.03
2022-09-28T15:30:32.029Z,6.90
2022-09-28T15:33:19.306Z,8.83
2022-09-28T15:35:54.812Z,7.07
2022-09-28T15:38:21.662Z,11.70
2022-09-28T15:40:48.352Z,8.43
2022-09-28T15:43:32.672Z,7.07
2022-09-28T15:46:13.869Z,5.90
2022-09-28T15:48:41.168Z,5.40
2022-09-28T15:51:12.554Z,6.10
2022-09-28T15:53:52.893Z,6.00
2022-09-28T15:56:19.526Z,6.10
2022-09-28T15:59:14.840Z,6.30
2022-09-28T16:01:45.187Z,5.90
2022-09-28T16:04:37.568Z,7.70
2022-09-28T16:07:10.174Z,7.37
2022-09-28T16:09:56.656Z,9.17
2022-09-28T16:12:24.685Z,6.40
2022-09-28T16:14:52.073Z,7.83
2022-09-28T16:17:32.693Z,6.77
2022-09-28T16:20:05.497Z,6.70
2022-09-28T16:22:32.782Z,6.60
2022-09-28T16:25:00.834Z,7.80
2022-09-28T16:27:45.742Z,9.93
2022-09-28T16:30:20.973Z,7.03
2022-09-28T16:32:56.553Z,6.80
2022-09-28T16:35:25.760Z,6.83
2022-09-28T16:38:05.524Z,8.00
2022-09-28T16:40:32.840Z,7.63
2022-09-28T16:43:03.359Z,6.97
2022-09-28T16:45:29.946Z,8.60
2022-09-28T16:47:57.437Z,8.07
2022-09-28T16:50:25.014Z,8.53
2022-09-28T16:53:34.672Z,10.63
2022-09-28T16:56:02.415Z,8.23
2022-09-28T16:58:31.141Z,8.40
2022-09-28T17:00:58.749Z,8.73
2022-09-28T17:03:26.085Z,9.33
2022-09-28T17:05:52.885Z,9.47
2022-09-28T17:08:22.191Z,14.30
2022-09-28T17:13:41.163Z,12.30
2022-09-28T17:16:20.985Z,12.53
2022-09-28T17:18:51.781Z,11.17
2022-09-28T17:21:19.908Z,9.70
2022-09-28T17:23:48.074Z,11.53
2022-09-28T17:26:19.965Z,9.10
2022-09-28T17:28:46.485Z,9.60
2022-09-28T17:31:16.905Z,11.10
2022-09-28T17:33:43.678Z,11.17
2022-09-28T17:36:14.355Z,11.80
2022-09-28T17:38:42.832Z,9.13
2022-09-28T17:41:19.369Z,8.40
2022-09-28T17:43:46.914Z,8.80
2022-09-28T17:46:31.671Z,7.20
2022-09-28T17:48:59.866Z,7.63
2022-09-28T17:51:31.348Z,7.17
2022-09-28T17:53:58.814Z,7.73
2022-09-28T17:56:28.579Z,6.07
2022-09-28T17:59:00.227Z,4.63
2022-09-28T18:01:29.960Z,5.27
2022-09-28T18:03:56.495Z,4.70
2022-09-28T18:06:23.688Z,4.57
2022-09-28T18:08:50.221Z,7.40
2022-09-28T18:11:17.367Z,4.90
2022-09-28T18:13:45.905Z,4.10
2022-09-28T18:16:13.107Z,3.43
2022-09-28T18:18:39.910Z,3.73
2022-09-28T18:21:07.372Z,3.80
2022-09-28T18:23:39.882Z,4.40
2022-09-28T18:26:13.876Z,4.83
2022-09-28T18:28:40.782Z,4.33
2022-09-28T18:31:12.131Z,7.70
2022-09-28T18:33:51.280Z,4.07
2022-09-28T18:36:17.698Z,3.87
2022-09-28T18:38:46.927Z,4.80
2022-09-28T18:41:15.539Z,3.03
2022-09-28T18:43:49.196Z,3.97
2022-09-28T18:46:17.603Z,3.73
2022-09-28T18:48:44.323Z,3.30
2022-09-28T18:51:11.916Z,3.80
2022-09-28T18:53:38.897Z,4.20
2022-09-28T18:56:09.859Z,3.50
2022-09-28T18:58:37.553Z,3.83
2022-09-28T19:01:33.536Z,3.77
2022-09-28T19:04:01.650Z,5.40
2022-09-28T19:06:28.558Z,3.73
2022-09-28T19:08:55.818Z,3.50
2022-09-28T19:11:23.068Z,5.93
2022-09-28T19:13:49.667Z,4.37
2022-09-28T19:16:18.354Z,4.23
2022-09-28T19:18:45.037Z,5.33
2022-09-28T19:21:13.655Z,6.30
2022-09-28T19:23:44.707Z,3.80
2022-09-28T19:26:15.720Z,6.13
2022-09-28T19:28:42.379Z,4.40
2022-09-28T19:31:09.215Z,4.70
2022-09-28T19:33:36.635Z,4.70
2022-09-28T19:36:11.464Z,4.37
2022-09-28T19:38:39.146Z,5.30
2022-09-28T19:41:10.523Z,5.67
2022-09-28T19:43:37.347Z,6.03
2022-09-28T19:46:07.902Z,5.70
2022-09-28T19:48:34.714Z,8.27
2022-09-28T19:51:06.165Z,8.03
2022-09-28T19:53:36.609Z,7.67
2022-09-28T19:56:05.316Z,6.33
2022-09-28T19:58:34.852Z,6.17
2022-09-28T20:01:06.386Z,6.40
2022-09-28T20:03:34.092Z,6.70
2022-09-28T20:06:01.710Z,7.93
2022-09-28T20:08:30.166Z,10.07
2022-09-28T20:10:59.523Z,5.63
2022-09-28T20:13:34.400Z,8.00
2022-09-28T20:16:08.998Z,5.57
2022-09-28T20:18:38.203Z,7.57
2022-09-28T20:21:06.935Z,20.90
2022-09-28T20:23:36.306Z,7.20
2022-09-28T20:26:04.745Z,21.50
2022-09-28T20:28:32.174Z,19.67
2022-09-28T20:31:24.522Z,14.93
2022-09-28T20:33:51.807Z,14.43
2022-09-28T20:36:20.986Z,13.70
2022-09-28T20:38:58.365Z,15.57
2022-09-28T20:41:25.663Z,11.43
2022-09-28T20:43:54.552Z,14.67
2022-09-28T20:46:22.158Z,7.90
2022-09-28T20:48:52.163Z,9.70
2022-09-28T20:51:20.299Z,11.87
2022-09-28T20:53:49.159Z,13.07
2022-09-28T20:56:22.807Z,8.20
2022-09-28T20:58:51.072Z,9.73
2022-09-28T21:01:23.563Z,6.67
2022-09-28T21:03:53.132Z,6.43
2022-09-28T21:06:21.938Z,7.47
2022-09-28T21:08:49.611Z,8.90
2022-09-28T21:11:21.354Z,6.93
2022-09-28T21:13:48.558Z,6.33
2022-09-28T21:16:16.303Z,6.07
2022-09-28T21:18:42.937Z,7.33
2022-09-28T21:21:12.798Z,6.37
2022-09-28T21:23:39.692Z,7.40
2022-09-28T21:26:24.583Z,6.20
2022-09-28T21:29:00.195Z,6.83
2022-09-28T21:31:29.655Z,6.03
2022-09-28T21:33:57.263Z,6.03
2022-09-28T21:36:24.711Z,5.90
2022-09-28T21:38:51.427Z,6.27
2022-09-28T21:41:18.064Z,6.50
2022-09-28T21:43:45.599Z,8.67
2022-09-28T21:46:12.251Z,9.67
2022-09-28T21:48:38.971Z,7.20
2022-09-28T21:51:07.655Z,6.90
2022-09-28T21:53:36.025Z,5.90
2022-09-28T21:56:04.493Z,6.87
2022-09-28T21:58:33.281Z,6.40
2022-09-28T22:01:05.419Z,6.07
2022-09-28T22:03:33.475Z,6.10
2022-09-28T22:05:59.954Z,5.03
2022-09-28T22:08:27.134Z,5.27
2022-09-28T22:11:00.866Z,6.57
2022-09-28T22:13:32.431Z,5.57
2022-09-28T22:15:59.402Z,6.20
2022-09-28T22:18:27.338Z,6.60
2022-09-28T22:21:00.404Z,5.43
2022-09-28T22:23:28.175Z,7.20
2022-09-28T22:26:09.739Z,5.73
2022-09-28T22:28:36.686Z,6.17
2022-09-28T22:31:04.059Z,6.47
2022-09-28T22:33:30.664Z,5.50
2022-09-28T22:35:57.149Z,5.33
2022-09-28T22:38:24.704Z,7.43
2022-09-28T22:40:54.515Z,6.30
2022-09-28T22:43:23.394Z,4.97
2022-09-28T22:45:50.182Z,7.10
2022-09-28T22:48:16.882Z,5.97
2022-09-28T22:50:50.785Z,6.70
2022-09-28T22:53:18.138Z,7.03
2022-09-28T22:55:44.843Z,6.07
2022-09-28T22:58:11.982Z,4.70
2022-09-28T23:00:38.805Z,4.60
2022-09-28T23:03:05.494Z,5.27
2022-09-28T23:05:32.103Z,4.80
2022-09-28T23:07:58.627Z,4.37
2022-09-28T23:10:25.152Z,4.57
2022-09-28T23:12:53.726Z,4.43
2022-09-28T23:15:21.562Z,4.70
2022-09-28T23:17:52.334Z,4.90
2022-09-28T23:20:22.400Z,4.50
2022-09-28T23:22:56.608Z,4.60
2022-09-28T23:25:23.186Z,3.97
2022-09-28T23:27:50.716Z,4.97
2022-09-28T23:30:18.763Z,5.70
2022-09-28T23:32:45.695Z,5.03
2022-09-28T23:35:13.527Z,7.13
2022-09-28T23:37:39.979Z,6.30
2022-09-28T23:40:07.033Z,5.83
2022-09-28T23:42:34.916Z,5.53
2022-09-28T23:45:01.469Z,5.53
2022-09-28T23:47:27.985Z,5.43
2022-09-28T23:49:54.438Z,5.70
2022-09-28T23:52:20.938Z,5.77
2022-09-28T23:54:47.383Z,5.73
2022-09-28T23:57:13.867Z,5.93
2022-09-28T23:59:40.382Z,6.23
